createdAt,value
2022-10-22T00:01:59.107Z,100836.86
2022-10-22T00:04:34.662Z,100833.24
2022-10-22T00:07:07.767Z,100820.17
2022-10-22T00:09:40.952Z,100821.05
2022-10-22T00:12:13.848Z,100809.87
2022-10-22T00:14:46.708Z,100809.03
2022-10-22T00:17:25.850Z,100816.22
2022-10-22T00:20:00.160Z,100805.64
2022-10-22T00:22:34.520Z,100810.55
2022-10-22T00:25:08.282Z,100803.41
2022-10-22T00:27:41.558Z,100801.60
2022-10-22T00:30:14.681Z,100803.41
2022-10-22T00:32:49.169Z,100798.91
2022-10-22T00:35:21.779Z,100801.52
2022-10-22T00:37:55.231Z,100804.03
2022-10-22T00:40:31.893Z,100781.25
2022-10-22T00:43:04.616Z,100791.38
2022-10-22T00:45:37.776Z,100789.23
2022-10-22T00:48:32.747Z,100793.27
2022-10-22T00:51:07.808Z,100794.99
2022-10-22T00:53:48.004Z,100784.23
2022-10-22T00:56:21.670Z,100778.85
2022-10-22T00:58:57.737Z,100784.82
2022-10-22T01:01:32.642Z,100776.75
2022-10-22T01:04:05.641Z,100774.52
2022-10-22T01:06:39.393Z,100765.02
2022-10-22T01:09:35.057Z,100755.61
2022-10-22T01:12:19.332Z,100745.99
2022-10-22T01:15:17.380Z,100738.56
2022-10-22T01:18:18.717Z,100746.34
2022-10-22T01:21:16.432Z,100767.06
2022-10-22T01:24:23.614Z,100765.60
2022-10-22T01:27:18.152Z,100756.36
2022-10-22T01:30:03.572Z,100746.48
2022-10-22T01:32:46.973Z,100734.00
2022-10-22T01:35:24.805Z,100733.21
2022-10-22T01:38:01.079Z,100731.08
2022-10-22T01:40:38.508Z,100732.68
2022-10-22T01:43:12.100Z,100731.34
2022-10-22T01:45:48.600Z,100728.77
2022-10-22T01:48:48.657Z,100740.66
2022-10-22T01:52:05.388Z,100729.91
2022-10-22T01:55:00.903Z,100719.73
2022-10-22T01:58:27.435Z,100725.66
2022-10-22T02:01:19.956Z,100723.06
2022-10-22T02:04:37.083Z,100720.08
2022-10-22T02:07:12.041Z,100719.53
2022-10-22T02:09:45.242Z,100712.81
2022-10-22T02:12:19.229Z,100711.47
2022-10-22T02:14:52.145Z,100715.41
2022-10-22T02:17:26.244Z,100708.28
2022-10-22T02:20:03.503Z,100702.05
2022-10-22T02:22:38.410Z,100696.50
2022-10-22T02:25:12.501Z,100690.16
2022-10-22T02:28:05.084Z,100688.31
2022-10-22T02:30:38.142Z,100685.16
2022-10-22T02:33:20.678Z,100690.92
2022-10-22T02:35:55.058Z,100685.07
2022-10-22T02:38:28.589Z,100670.75
2022-10-22T02:41:02.972Z,100672.97
2022-10-22T02:43:44.233Z,100672.89
2022-10-22T02:46:17.150Z,100679.61
2022-10-22T02:48:49.856Z,100668.65
2022-10-22T02:51:22.504Z,100670.38
2022-10-22T02:53:55.315Z,100663.36
2022-10-22T02:56:28.172Z,100654.83
2022-10-22T02:59:02.763Z,100660.20
2022-10-22T03:01:36.020Z,100657.20
2022-10-22T03:04:09.395Z,100650.18
2022-10-22T03:06:48.227Z,100656.61
2022-10-22T03:09:24.735Z,100645.06
2022-10-22T03:11:56.630Z,100645.75
2022-10-22T03:14:31.370Z,100644.08
2022-10-22T03:17:04.669Z,100638.50
2022-10-22T03:19:37.354Z,100650.68
2022-10-22T03:22:20.245Z,100643.67
2022-10-22T03:25:01.081Z,100635.11
2022-10-22T03:27:38.022Z,100629.81
2022-10-22T03:30:12.615Z,100628.01
2022-10-22T03:32:46.498Z,100627.63
2022-10-22T03:35:22.889Z,100618.22
2022-10-22T03:37:58.244Z,100606.89
2022-10-22T03:40:30.794Z,100619.39
2022-10-22T03:43:05.596Z,100618.98
2022-10-22T03:48:11.286Z,100607.50
2022-10-22T03:50:43.906Z,100610.02
2022-10-22T03:53:16.866Z,100606.55
2022-10-22T03:55:51.801Z,100613.09
2022-10-22T03:58:24.703Z,100611.58
2022-10-22T04:00:58.708Z,100601.52
2022-10-22T04:03:32.835Z,100602.01
2022-10-22T04:06:13.720Z,100597.52
2022-10-22T04:08:48.599Z,100599.56
2022-10-22T04:11:23.034Z,100593.59
2022-10-22T04:13:57.155Z,100593.13
2022-10-22T04:16:31.707Z,100585.43
2022-10-22T04:19:04.575Z,100587.66
2022-10-22T04:21:38.262Z,100583.63
2022-10-22T04:24:10.899Z,100592.85
2022-10-22T04:26:46.300Z,100595.27
2022-10-22T04:29:18.917Z,100596.90
2022-10-22T04:31:53.832Z,100585.77
2022-10-22T04:34:31.634Z,100587.30
2022-10-22T04:37:06.443Z,100594.81
2022-10-22T04:39:40.357Z,100596.54
2022-10-22T04:42:15.262Z,100596.35
2022-10-22T04:44:48.962Z,100596.55
2022-10-22T04:47:22.426Z,100596.36
2022-10-22T04:49:55.840Z,100597.05
2022-10-22T04:52:30.774Z,100603.27
2022-10-22T04:55:03.783Z,100602.34
2022-10-22T04:57:36.612Z,100592.32
2022-10-22T05:00:11.078Z,100590.13
2022-10-22T05:02:45.105Z,100589.10
2022-10-22T05:05:19.127Z,100576.70
2022-10-22T05:07:53.604Z,100565.75
2022-10-22T05:10:27.242Z,100562.17
2022-10-22T05:13:02.167Z,100560.45
2022-10-22T05:15:36.014Z,100552.75
2022-10-22T05:18:09.547Z,100554.09
2022-10-22T05:20:43.514Z,100567.94
2022-10-22T05:23:16.910Z,100568.91
2022-10-22T05:25:49.601Z,100568.34
2022-10-22T05:28:22.180Z,100568.81
2022-10-22T05:30:59.393Z,100570.84
2022-10-22T05:33:33.063Z,100579.98
2022-10-22T05:36:08.784Z,100575.34
2022-10-22T05:38:42.199Z,100577.94
2022-10-22T05:41:18.538Z,100568.42
2022-10-22T05:43:51.456Z,100569.67
2022-10-22T05:46:27.377Z,100580.94
2022-10-22T05:49:03.826Z,100582.73
2022-10-22T05:51:37.977Z,100594.28
2022-10-22T05:56:57.132Z,100582.67
2022-10-22T05:59:32.446Z,100574.34
2022-10-22T06:02:08.930Z,100574.04
2022-10-22T06:04:45.514Z,100579.22
2022-10-22T06:07:18.110Z,100570.42
2022-10-22T06:09:52.092Z,100573.70
2022-10-22T06:12:27.088Z,100562.33
2022-10-22T06:15:00.187Z,100562.94
2022-10-22T10:39:16.238Z,100412.86
2022-10-22T10:42:20.671Z,100391.50
2022-10-22T10:45:07.204Z,100392.47
2022-10-22T10:48:12.820Z,100399.09
2022-10-22T10:51:05.926Z,100406.74
2022-10-22T10:54:07.540Z,100408.32
2022-10-22T11:00:20.167Z,100403.41
2022-10-22T11:03:19.038Z,100405.78
2022-10-22T11:06:01.211Z,100388.17
2022-10-22T11:08:41.997Z,100394.26
2022-10-22T11:11:19.358Z,100399.23
2022-10-22T11:13:56.133Z,100389.61
2022-10-22T11:16:47.855Z,100382.34
2022-10-22T11:19:52.948Z,100388.90
2022-10-22T11:23:00.354Z,100372.36
2022-10-22T11:25:25.117Z,100368.84
2022-10-22T11:28:06.767Z,100371.77
2022-10-22T11:30:37.471Z,100376.67
2022-10-22T11:33:13.912Z,100373.56
2022-10-22T11:35:47.993Z,100353.52
2022-10-22T11:38:24.144Z,100342.42
2022-10-22T11:41:16.937Z,100344.27
2022-10-22T11:44:27.363Z,100342.73
2022-10-22T11:47:12.545Z,100328.73
2022-10-22T11:49:51.135Z,100316.79
2022-10-22T11:52:35.115Z,100314.34
2022-10-22T11:55:33.458Z,100316.54
2022-10-22T11:58:10.954Z,100323.93
2022-10-22T12:00:48.760Z,100327.95
2022-10-22T12:03:28.794Z,100322.97
2022-10-22T12:06:13.346Z,100311.45
2022-10-22T12:08:57.881Z,100319.22
2022-10-22T12:11:48.869Z,100323.76
2022-10-22T12:14:38.099Z,100323.48
2022-10-22T12:17:15.078Z,100312.83
2022-10-22T12:19:56.392Z,100302.17
2022-10-22T12:22:52.629Z,100293.39
2022-10-22T12:25:30.075Z,100295.45
2022-10-22T12:28:05.777Z,100305.41
2022-10-22T12:30:40.091Z,100310.30
2022-10-22T12:33:41.545Z,100299.84
2022-10-22T12:36:23.037Z,100302.52
2022-10-22T12:38:59.326Z,100294.37
2022-10-22T12:41:36.830Z,100283.11
2022-10-22T12:44:15.203Z,100274.54
2022-10-22T12:46:56.003Z,100279.04
2022-10-22T12:49:32.042Z,100285.90
2022-10-22T12:52:13.992Z,100276.42
2022-10-22T12:54:48.921Z,100273.64
2022-10-22T12:57:21.556Z,100273.78
2022-10-22T12:59:54.623Z,100281.58
2022-10-22T13:02:28.952Z,100278.58
2022-10-22T13:05:27.271Z,100274.09
2022-10-22T13:08:17.362Z,100274.02
2022-10-22T13:10:55.532Z,100283.39
2022-10-22T13:13:42.870Z,100278.03
2022-10-22T13:16:31.751Z,100279.59
2022-10-22T13:19:03.769Z,100279.45
2022-10-22T13:21:42.160Z,100276.59
2022-10-22T13:24:26.655Z,100274.40
2022-10-22T13:27:03.734Z,100274.75
2022-10-22T13:29:38.394Z,100259.94
2022-10-22T13:32:34.957Z,100264.50
2022-10-22T13:35:09.438Z,100261.30
2022-10-22T13:37:42.072Z,100268.97
2022-10-22T13:40:17.302Z,100271.16
2022-10-22T13:42:53.926Z,100275.76
2022-10-22T13:45:28.044Z,100268.97
2022-10-22T13:48:03.410Z,100266.00
2022-10-22T13:50:38.639Z,100266.38
2022-10-22T13:53:19.153Z,100267.22
2022-10-22T13:55:52.309Z,100263.14
2022-10-22T13:58:26.983Z,100261.09
2022-10-22T14:01:01.145Z,100251.86
2022-10-22T14:03:38.372Z,100259.00
2022-10-22T14:06:14.633Z,100262.06
2022-10-22T14:08:50.916Z,100258.72
2022-10-22T14:11:27.042Z,100256.88
2022-10-22T14:13:58.957Z,100253.28
2022-10-22T14:16:32.508Z,100246.28
2022-10-22T14:19:07.796Z,100239.91
2022-10-22T14:21:43.107Z,100239.18
2022-10-22T14:24:16.980Z,100239.84
2022-10-22T14:26:50.503Z,100233.39
2022-10-22T14:29:23.224Z,100235.62
2022-10-22T14:31:57.509Z,100224.23
2022-10-22T14:34:51.227Z,100215.24
2022-10-22T14:37:26.022Z,100211.66
2022-10-22T14:40:02.827Z,100196.84
2022-10-22T14:42:41.936Z,100181.17
2022-10-22T14:45:26.117Z,100172.09
2022-10-22T14:48:00.282Z,100166.73
2022-10-22T14:50:34.217Z,100156.29
2022-10-22T14:53:07.302Z,100154.14
2022-10-22T14:55:40.179Z,100158.11
2022-10-22T14:58:13.512Z,100151.60
2022-10-22T15:00:46.452Z,100147.18
2022-10-22T15:03:19.993Z,100151.05
2022-10-22T15:05:54.991Z,100156.97
2022-10-22T15:08:28.185Z,100160.70
2022-10-22T15:11:06.189Z,100162.68
2022-10-22T15:13:42.312Z,100162.96
2022-10-22T15:16:18.658Z,100166.61
2022-10-22T15:18:53.318Z,100169.13
2022-10-22T15:21:26.360Z,100170.52
2022-10-22T15:24:00.974Z,100168.25
2022-10-22T15:26:33.911Z,100168.00
2022-10-22T15:29:07.082Z,100163.72
2022-10-22T15:31:47.883Z,100164.07
2022-10-22T15:34:27.995Z,100167.38
2022-10-22T15:37:03.024Z,100167.59
2022-10-22T15:39:36.738Z,100174.59
2022-10-22T15:42:12.130Z,100172.60
2022-10-22T15:44:48.394Z,100171.25
2022-10-22T15:47:23.005Z,100177.02
2022-10-22T15:49:59.049Z,100179.84
2022-10-22T15:52:32.869Z,100184.83
2022-10-22T15:55:08.551Z,100188.76
2022-10-22T15:57:41.691Z,100194.19
2022-10-22T16:00:17.345Z,100196.42
2022-10-22T16:02:52.933Z,100200.35
2022-10-22T16:05:25.791Z,100194.05
2022-10-22T16:08:02.388Z,100182.35
2022-10-22T16:10:39.605Z,100189.28
2022-10-22T16:13:13.266Z,100184.97
2022-10-22T16:15:46.102Z,100179.84
2022-10-22T16:18:20.470Z,100178.38
2022-10-22T16:20:55.567Z,100175.94
2022-10-22T16:23:29.338Z,100171.80
2022-10-22T16:26:05.079Z,100176.53
2022-10-22T16:28:41.557Z,100174.37
2022-10-22T16:31:18.005Z,100172.55
2022-10-22T16:33:50.839Z,100190.47
2022-10-22T16:36:24.025Z,100197.18
2022-10-22T16:38:58.385Z,100191.16
2022-10-22T16:41:39.699Z,100185.23
2022-10-22T16:44:18.316Z,100188.44
2022-10-22T16:46:55.451Z,100185.52
2022-10-22T16:49:29.156Z,100187.22
2022-10-22T16:52:06.322Z,100179.46
2022-10-22T17:46:22.351Z,100140.03
2022-10-22T17:49:12.860Z,100139.56
2022-10-22T17:51:53.367Z,100138.70
2022-10-22T17:54:33.446Z,100133.66
2022-10-22T17:57:09.503Z,100144.37
2022-10-22T17:59:45.313Z,100149.66
2022-10-22T18:02:25.003Z,100141.06
2022-10-22T18:04:59.416Z,100130.83
2022-10-22T18:07:39.051Z,100125.19
2022-10-22T18:10:15.972Z,100128.03
2022-10-22T18:12:55.117Z,100116.22
2022-10-22T18:18:34.654Z,100120.98
2022-10-22T18:21:08.224Z,100115.56
2022-10-22T18:23:50.147Z,100112.50
2022-10-22T18:26:29.343Z,100106.07
2022-10-22T18:29:20.745Z,100097.66
2022-10-22T18:34:51.918Z,100092.91
2022-10-22T18:37:26.630Z,100096.15
2022-10-22T18:40:03.548Z,100103.62
2022-10-22T18:42:50.741Z,100107.21
2022-10-22T18:45:28.987Z,100105.37
2022-10-22T18:48:08.631Z,100098.06
2022-10-22T18:50:45.785Z,100096.58
2022-10-22T18:53:26.731Z,100093.52
2022-10-22T18:56:09.442Z,100102.66
2022-10-22T18:58:48.012Z,100094.80
2022-10-22T19:01:28.311Z,100099.13
2022-10-22T19:04:04.118Z,100096.47
2022-10-22T19:09:27.687Z,100099.86
2022-10-22T19:12:02.219Z,100103.20
2022-10-22T19:14:35.856Z,100098.86
2022-10-22T19:17:10.648Z,100095.88
2022-10-22T19:19:45.959Z,100100.30
2022-10-22T19:22:18.810Z,100101.52
2022-10-22T19:24:52.541Z,100102.73
2022-10-22T19:27:27.601Z,100097.31
2022-10-22T19:30:00.948Z,100093.25
2022-10-22T19:32:38.189Z,100093.45
2022-10-22T19:35:11.943Z,100086.92
2022-10-22T19:37:51.006Z,100093.44
2022-10-22T19:40:28.890Z,100096.36
2022-10-22T19:43:04.370Z,100091.16
2022-10-22T19:45:59.930Z,100096.79
2022-10-22T19:48:36.305Z,100090.88
2022-10-22T19:51:15.227Z,100090.47
2022-10-22T19:53:51.179Z,100089.98
2022-10-22T19:56:24.372Z,100089.46
2022-10-22T19:58:59.649Z,100090.81
2022-10-22T20:01:32.999Z,100084.45
2022-10-22T20:04:07.861Z,100086.46
2022-10-22T20:06:45.676Z,100086.08
2022-10-22T20:09:24.903Z,100089.30
2022-10-22T20:11:58.351Z,100087.95
2022-10-22T20:14:31.883Z,100090.39
2022-10-22T20:17:08.537Z,100090.74
2022-10-22T20:19:43.511Z,100088.90
2022-10-22T20:22:18.778Z,100092.97
2022-10-22T20:24:51.893Z,100098.12
2022-10-22T20:27:24.809Z,100099.83
2022-10-22T20:29:58.132Z,100102.75
2022-10-22T20:32:33.466Z,100098.89
2022-10-22T20:35:07.558Z,100098.06
2022-10-22T20:37:42.419Z,100092.98
2022-10-22T20:40:15.682Z,100098.75
2022-10-22T20:42:50.101Z,100095.55
2022-10-22T20:45:22.810Z,100096.78
2022-10-22T20:48:02.776Z,100098.13
2022-10-22T20:50:42.934Z,100089.13
2022-10-22T20:53:17.042Z,100085.44
2022-10-22T20:55:53.604Z,100086.13
2022-10-22T20:58:31.100Z,100080.08
2022-10-22T21:01:05.524Z,100077.72
2022-10-22T21:03:42.637Z,100066.87
2022-10-22T21:06:18.349Z,100068.50
2022-10-22T21:08:52.430Z,100062.38
2022-10-22T21:11:28.254Z,100060.42
2022-10-22T21:14:01.816Z,100055.28
2022-10-22T21:16:35.696Z,100058.13
2022-10-22T21:19:09.024Z,100047.94
2022-10-22T21:21:43.477Z,100040.42
2022-10-22T21:24:16.398Z,100042.78
2022-10-22T21:26:52.870Z,100029.64
2022-10-22T21:29:25.993Z,100025.84
2022-10-22T21:32:00.284Z,100017.11
2022-10-22T21:34:38.172Z,100018.99
2022-10-22T21:37:07.628Z,100019.13
2022-10-22T21:39:42.308Z,100011.00
2022-10-22T21:42:17.070Z,100010.61
2022-10-22T21:44:49.765Z,100012.25
2022-10-22T21:47:22.408Z,100004.77
2022-10-22T21:50:00.161Z,100004.41
2022-10-22T21:52:33.565Z,100004.41
2022-10-22T21:55:08.882Z,100008.10
2022-10-22T21:57:43.432Z,100013.53
2022-10-22T22:00:20.349Z,100005.04
2022-10-22T22:02:53.987Z,100002.55
2022-10-22T22:05:28.940Z,100003.27
2022-10-22T22:08:02.064Z,100004.35
2022-10-22T22:10:37.401Z,99997.92
2022-10-22T22:13:12.453Z,99998.80
2022-10-22T22:15:45.689Z,99993.51
2022-10-22T22:18:18.938Z,99991.07
2022-10-22T22:20:52.594Z,99991.91
2022-10-22T22:23:25.517Z,99991.70
2022-10-22T22:26:02.682Z,99982.34
2022-10-22T22:28:39.374Z,99987.07
2022-10-22T22:31:19.158Z,99984.11
2022-10-22T22:34:00.201Z,99983.77
2022-10-22T22:36:58.825Z,99991.27
2022-10-22T22:39:31.872Z,99988.91
2022-10-22T22:42:04.615Z,99985.33
2022-10-22T22:44:40.900Z,99981.27
2022-10-22T22:47:15.647Z,99979.56
2022-10-22T22:49:49.919Z,99975.63
2022-10-22T22:52:22.752Z,99980.19
2022-10-22T22:54:55.690Z,99977.13
2022-10-22T22:57:31.349Z,99977.47
2022-10-22T23:00:03.397Z,99979.21
2022-10-22T23:02:36.241Z,99977.58
2022-10-22T23:05:09.514Z,99977.92
2022-10-22T23:07:43.938Z,99974.73
2022-10-22T23:10:17.081Z,99973.72
2022-10-22T23:12:50.425Z,99974.94
2022-10-22T23:15:23.985Z,99973.45
2022-10-22T23:18:00.553Z,99975.64
2022-10-22T23:20:33.594Z,99976.51
2022-10-22T23:23:07.890Z,99976.99
2022-10-22T23:25:46.166Z,99982.27
2022-10-22T23:28:19.402Z,99981.30
2022-10-22T23:30:52.064Z,99979.56
2022-10-22T23:33:26.298Z,99987.56
2022-10-22T23:36:04.165Z,99984.23
2022-10-22T23:38:39.691Z,99973.59
2022-10-22T23:41:13.970Z,99977.52
2022-10-22T23:43:48.159Z,99967.67
2022-10-22T23:46:21.364Z,99965.97
2022-10-22T23:48:54.288Z,99960.89
2022-10-22T23:51:28.196Z,99959.89
2022-10-22T23:54:03.185Z,99962.59
2022-10-22T23:56:36.268Z,99956.48
2022-10-22T23:59:10.588Z,99955.47
